WXM80 ListenWXM80 Stop

You find our weather info also at:

UK Metoffice

WeatherCloud

Weather Underground

Northeastern Weather Network

AWEKAS

Citizen Weather Observer Program (CWOP)

HAMweather, WeatherForYou, PWS Weather


Weather Underground History page Text

Daily Summary for January 11, 2017 Units:  English    Metric   Both
« Previous Day
Next Day »
Daily Weekly Monthly Yearly Custom
  High: Low: Average:
Temperature: 53.4 °F 43.7 °F 47.2 °F
Dew Point: 45.7 °F 40.0 °F 42.4 °F
Humidity: 96 % 64 % 84 %
Wind Speed: 14.5 mph 0.0 mph 3.6 mph
Wind Gust: 22.0 mph - -
Wind:- - SSW
Pressure: 30.30 in 30.13 in -
Precipitation: 0.19 in    
Historical Graphs
 
 
Tabular Data for January 11, 2017
Time Temperature Dew Point Pressure Wind Wind Speed Wind Gust Humidity Rainfall Rate (Hourly)
00:00 45.6 °F 41.4 °F 30.18 in South 5.2 mph 9.2 mph 85 % 0.00 in
00:05 45.7 °F 41.4 °F 30.17 in SSW 4.3 mph 11.5 mph 85 % 0.00 in
00:10 45.8 °F 41.5 °F 30.17 in South 5.5 mph 7.0 mph 85 % 0.00 in
00:15 45.8 °F 41.5 °F 30.17 in SSW 5.8 mph 12.7 mph 85 % 0.00 in
00:20 45.8 °F 41.5 °F 30.17 in South 5.1 mph 8.0 mph 85 % 0.00 in
00:25 45.9 °F 41.6 °F 30.16 in South 6.1 mph 11.5 mph 85 % 0.00 in
00:30 45.9 °F 41.6 °F 30.16 in South 4.5 mph 8.0 mph 85 % 0.00 in
00:36 46.0 °F 41.7 °F 30.16 in SSW 3.9 mph 8.1 mph 85 % 0.00 in
00:41 46.0 °F 41.7 °F 30.16 in SSW 3.9 mph 6.9 mph 85 % 0.00 in
00:46 46.1 °F 41.8 °F 30.16 in SSW 6.4 mph 11.5 mph 85 % 0.00 in
00:51 46.1 °F 41.8 °F 30.16 in SSW 3.4 mph 6.9 mph 85 % 0.00 in
00:56 46.1 °F 41.8 °F 30.16 in South 0.7 mph 5.0 mph 85 % 0.00 in
01:01 46.2 °F 42.2 °F 30.16 in SSW 5.6 mph 7.0 mph 86 % 0.00 in
01:06 46.2 °F 42.2 °F 30.16 in SW 3.9 mph 6.9 mph 86 % 0.00 in
01:11 46.2 °F 42.2 °F 30.16 in SSW 3.4 mph 5.8 mph 86 % 0.00 in
01:16 46.2 °F 42.5 °F 30.16 in South 4.1 mph 6.9 mph 87 % 0.00 in
01:21 46.2 °F 42.5 °F 30.17 in SW 4.6 mph 8.0 mph 87 % 0.00 in
01:26 46.2 °F 42.5 °F 30.17 in SW 2.9 mph 6.9 mph 87 % 0.00 in
01:31 46.2 °F 42.8 °F 30.17 in SSW 3.8 mph 6.0 mph 88 % 0.00 in
01:36 46.2 °F 43.1 °F 30.18 in WSW 3.3 mph 6.9 mph 89 % 0.00 in
01:41 46.1 °F 43.0 °F 30.18 in SW 4.2 mph 9.2 mph 89 % 0.00 in
01:47 45.9 °F 42.8 °F 30.18 in SW 1.2 mph 4.6 mph 89 % 0.00 in
01:52 45.8 °F 43.0 °F 30.18 in SSW 1.0 mph 4.6 mph 90 % 0.00 in
01:57 45.6 °F 42.8 °F 30.19 in SSW 4.6 mph 7.0 mph 90 % 0.00 in
02:02 45.5 °F 43.0 °F 30.18 in WSW 4.3 mph 9.2 mph 91 % 0.00 in
02:07 45.4 °F 43.2 °F 30.18 in SW 4.6 mph 6.9 mph 92 % 0.00 in
02:12 45.3 °F 43.1 °F 30.18 in WSW 6.5 mph 10.4 mph 92 % 0.00 in
02:17 45.3 °F 43.4 °F 30.17 in SSW 6.5 mph 10.4 mph 93 % 0.01 in
02:22 45.3 °F 43.4 °F 30.17 in SSW 4.5 mph 9.2 mph 93 % 0.01 in
02:27 45.3 °F 43.7 °F 30.17 in SW 5.6 mph 15.0 mph 94 % 0.01 in
02:32 45.3 °F 43.7 °F 30.16 in SSW 6.2 mph 12.0 mph 94 % 0.01 in
02:37 45.3 °F 43.7 °F 30.17 in SSW 4.9 mph 9.2 mph 94 % 0.02 in
02:42 45.2 °F 43.6 °F 30.16 in SSW 7.5 mph 10.4 mph 94 % 0.03 in
02:47 45.2 °F 43.6 °F 30.16 in SSW 5.8 mph 11.5 mph 94 % 0.03 in
02:52 45.1 °F 43.5 °F 30.16 in SSW 2.9 mph 5.0 mph 94 % 0.03 in
02:57 45.1 °F 43.8 °F 30.16 in SSW 5.5 mph 6.9 mph 95 % 0.04 in
03:03 45.1 °F 43.8 °F 30.15 in SSW 4.8 mph 10.4 mph 95 % 0.04 in
03:08 45.1 °F 43.8 °F 30.15 in South 4.7 mph 8.1 mph 95 % 0.04 in
03:13 45.1 °F 43.8 °F 30.15 in South 4.7 mph 10.4 mph 95 % 0.05 in
03:18 45.2 °F 43.9 °F 30.14 in East 5.7 mph 10.4 mph 95 % 0.05 in
03:23 45.1 °F 43.8 °F 30.14 in South 7.3 mph 9.2 mph 95 % 0.05 in
03:28 45.1 °F 43.8 °F 30.13 in SSW 4.1 mph 11.5 mph 95 % 0.06 in
03:33 45.2 °F 43.9 °F 30.14 in SSW 8.4 mph 17.3 mph 95 % 0.06 in
03:38 45.4 °F 44.1 °F 30.14 in SSW 9.7 mph 16.0 mph 95 % 0.06 in
03:43 45.5 °F 44.2 °F 30.13 in SW 5.5 mph 15.0 mph 95 % 0.05 in
03:48 45.7 °F 44.4 °F 30.13 in SW 6.9 mph 16.1 mph 95 % 0.05 in
03:53 45.8 °F 44.4 °F 30.13 in South 8.0 mph 12.0 mph 95 % 0.06 in
03:58 46.0 °F 44.6 °F 30.13 in SW 9.9 mph 19.6 mph 95 % 0.05 in
04:03 46.1 °F 44.7 °F 30.13 in WSW 5.8 mph 22.0 mph 95 % 0.05 in
04:08 46.3 °F 44.9 °F 30.13 in SSW 9.1 mph 13.8 mph 95 % 0.05 in
04:13 46.4 °F 45.0 °F 30.13 in SSW 6.0 mph 10.4 mph 95 % 0.05 in
04:19 46.5 °F 45.1 °F 30.14 in SSW 7.3 mph 10.4 mph 95 % 0.04 in
04:24 46.5 °F 45.1 °F 30.13 in SSW 14.5 mph 21.9 mph 95 % 0.04 in
04:29 46.6 °F 45.2 °F 30.14 in SW 10.3 mph 13.8 mph 95 % 0.03 in
04:34 46.7 °F 45.3 °F 30.14 in SSE 8.3 mph 13.8 mph 95 % 0.03 in
04:39 46.7 °F 45.3 °F 30.14 in WSW 7.2 mph 11.0 mph 95 % 0.02 in
04:44 46.8 °F 45.4 °F 30.14 in SSW 6.0 mph 18.0 mph 95 % 0.00 in
04:49 46.8 °F 45.4 °F 30.14 in SSW 7.0 mph 18.0 mph 95 % 0.00 in
04:54 46.8 °F 45.4 °F 30.14 in SSW 6.0 mph 17.0 mph 95 % 0.00 in
04:55 46.8 °F 45.4 °F 30.14 in SW 8.1 mph 10.4 mph 95 % 0.01 in
05:00 46.7 °F 45.1 °F 30.14 in WSW 9.8 mph 10.4 mph 94 % 0.01 in
05:05 46.7 °F 45.1 °F 30.14 in SW 10.2 mph 12.0 mph 94 % 0.01 in
05:10 46.6 °F 45.0 °F 30.14 in SW 7.6 mph 12.7 mph 94 % 0.00 in
05:15 46.6 °F 45.0 °F 30.15 in South 6.2 mph 16.1 mph 94 % 0.00 in
05:20 46.6 °F 45.0 °F 30.15 in SW 8.6 mph 17.0 mph 94 % 0.00 in
05:25 46.5 °F 44.9 °F 30.15 in WSW 7.4 mph 17.3 mph 94 % 0.00 in
05:30 46.6 °F 44.7 °F 30.15 in SW 6.3 mph 10.4 mph 93 % 0.00 in
05:35 46.5 °F 44.6 °F 30.16 in SW 10.2 mph 13.8 mph 93 % 0.00 in
05:40 46.5 °F 44.6 °F 30.15 in SSE 7.2 mph 11.5 mph 93 % 0.00 in
05:45 46.5 °F 44.3 °F 30.16 in South 8.1 mph 11.5 mph 92 % 0.00 in
05:51 46.5 °F 44.3 °F 30.16 in WSW 7.1 mph 13.8 mph 92 % 0.00 in
05:56 46.5 °F 44.3 °F 30.17 in SSW 6.4 mph 10.4 mph 92 % 0.00 in
06:01 46.5 °F 44.3 °F 30.17 in SSW 8.5 mph 12.0 mph 92 % 0.00 in
06:06 46.5 °F 44.3 °F 30.18 in South 5.0 mph 11.5 mph 92 % 0.00 in
06:11 46.4 °F 43.9 °F 30.18 in WSW 5.0 mph 9.2 mph 91 % 0.00 in
06:16 46.3 °F 43.8 °F 30.17 in SSW 8.8 mph 13.8 mph 91 % 0.00 in
06:21 46.2 °F 43.7 °F 30.18 in WSW 7.2 mph 11.5 mph 91 % 0.00 in
06:26 46.1 °F 43.6 °F 30.19 in South 8.2 mph 11.5 mph 91 % 0.00 in
06:31 46.0 °F 43.2 °F 30.19 in WSW 8.8 mph 17.3 mph 90 % 0.00 in
06:36 46.0 °F 43.2 °F 30.19 in SSW 10.2 mph 11.5 mph 90 % 0.00 in
06:41 45.8 °F 43.0 °F 30.20 in SW 11.7 mph 19.6 mph 90 % 0.00 in
06:46 45.8 °F 43.0 °F 30.21 in SSW 6.5 mph 12.7 mph 90 % 0.00 in
06:51 45.6 °F 42.5 °F 30.21 in WSW 5.1 mph 12.0 mph 89 % 0.00 in
06:56 45.5 °F 42.4 °F 30.22 in SSW 6.0 mph 11.0 mph 89 % 0.00 in
07:11 45.0 °F 42.0 °F 30.24 in West 3.0 mph 6.9 mph 89 % 0.00 in
07:16 44.8 °F 41.8 °F 30.23 in SW 2.0 mph 4.6 mph 89 % 0.00 in
07:21 44.7 °F 41.7 °F 30.24 in SSW 4.0 mph 5.8 mph 89 % 0.00 in
07:26 44.4 °F 41.4 °F 30.24 in SW 3.2 mph 5.8 mph 89 % 0.00 in
07:31 44.3 °F 41.3 °F 30.24 in West 4.6 mph 8.0 mph 89 % 0.00 in
07:36 44.1 °F 41.1 °F 30.24 in SW 3.3 mph 5.0 mph 89 % 0.00 in
07:41 44.0 °F 41.0 °F 30.24 in WSW 3.7 mph 5.0 mph 89 % 0.00 in
07:47 43.9 °F 40.9 °F 30.24 in SSW 3.2 mph 10.4 mph 89 % 0.00 in
07:52 43.8 °F 40.8 °F 30.24 in SSW 4.7 mph 9.2 mph 89 % 0.00 in
07:57 43.7 °F 40.7 °F 30.25 in SSW 3.9 mph 5.8 mph 89 % 0.00 in
08:02 43.7 °F 40.7 °F 30.25 in WSW 3.3 mph 9.2 mph 89 % 0.00 in
08:07 43.7 °F 40.7 °F 30.25 in SW 3.3 mph 7.0 mph 89 % 0.00 in
08:12 43.7 °F 40.7 °F 30.25 in SSW 6.5 mph 10.4 mph 89 % 0.00 in
08:17 43.7 °F 40.7 °F 30.25 in SW 5.3 mph 10.4 mph 89 % 0.00 in
08:22 43.8 °F 40.8 °F 30.25 in SSW 7.5 mph 11.5 mph 89 % 0.00 in
08:27 43.9 °F 40.9 °F 30.25 in SW 8.3 mph 11.5 mph 89 % 0.00 in
08:32 44.0 °F 40.7 °F 30.25 in SW 5.2 mph 9.2 mph 88 % 0.00 in
08:37 44.1 °F 40.8 °F 30.26 in West 7.1 mph 11.5 mph 88 % 0.00 in
08:42 44.3 °F 41.0 °F 30.27 in SSW 5.7 mph 8.1 mph 88 % 0.00 in
08:47 44.5 °F 40.9 °F 30.27 in WSW 5.3 mph 8.1 mph 87 % 0.00 in
08:52 44.6 °F 41.0 °F 30.27 in SW 6.7 mph 9.2 mph 87 % 0.00 in
08:57 44.7 °F 41.1 °F 30.27 in SSW 3.9 mph 11.0 mph 87 % 0.00 in
09:02 44.9 °F 41.0 °F 30.28 in WSW 4.5 mph 6.9 mph 86 % 0.00 in
09:08 45.1 °F 41.2 °F 30.28 in SW 5.0 mph 8.1 mph 86 % 0.00 in
09:13 45.2 °F 41.0 °F 30.28 in SSW 8.1 mph 13.8 mph 85 % 0.00 in
09:18 45.4 °F 41.2 °F 30.28 in SW 3.5 mph 6.9 mph 85 % 0.00 in
09:23 45.6 °F 41.0 °F 30.28 in SSW 7.9 mph 11.5 mph 84 % 0.00 in
09:28 45.9 °F 41.3 °F 30.29 in SW 5.3 mph 11.5 mph 84 % 0.00 in
09:33 46.2 °F 41.3 °F 30.29 in SSW 7.5 mph 11.5 mph 83 % 0.00 in
09:38 46.5 °F 41.6 °F 30.29 in WSW 4.3 mph 5.8 mph 83 % 0.00 in
09:43 46.8 °F 41.6 °F 30.29 in SW 6.7 mph 11.5 mph 82 % 0.00 in
09:48 47.0 °F 41.8 °F 30.30 in WSW 5.9 mph 10.4 mph 82 % 0.00 in
09:53 47.4 °F 41.9 °F 30.30 in WSW 5.8 mph 9.2 mph 81 % 0.00 in
09:58 47.7 °F 41.8 °F 30.29 in SW 3.9 mph 6.9 mph 80 % 0.00 in
10:03 48.0 °F 42.1 °F 30.29 in SW 6.0 mph 9.2 mph 80 % 0.00 in
10:08 48.3 °F 42.1 °F 30.29 in SW 4.3 mph 8.0 mph 79 % 0.00 in
10:13 48.6 °F 42.0 °F 30.29 in SSW 4.7 mph 6.9 mph 78 % 0.00 in
10:18 48.8 °F 42.2 °F 30.29 in SW 5.6 mph 9.2 mph 78 % 0.00 in
10:23 49.1 °F 42.2 °F 30.29 in SW 5.3 mph 11.5 mph 77 % 0.00 in
10:29 49.4 °F 42.5 °F 30.29 in SW 1.9 mph 3.5 mph 77 % 0.00 in
10:34 49.6 °F 42.3 °F 30.28 in SSW 3.8 mph 5.0 mph 76 % 0.00 in
10:39 49.9 °F 42.6 °F 30.29 in WSW 4.0 mph 5.8 mph 76 % 0.00 in
10:44 50.0 °F 42.0 °F 30.29 in WSW 6.6 mph 9.2 mph 74 % 0.00 in
10:49 50.1 °F 42.1 °F 30.29 in West 1.7 mph 4.6 mph 74 % 0.00 in
10:54 50.3 °F 42.3 °F 30.29 in WSW 3.6 mph 4.0 mph 74 % 0.00 in
10:59 50.4 °F 42.4 °F 30.29 in WNW 2.1 mph 3.5 mph 74 % 0.00 in
11:04 50.5 °F 42.2 °F 30.30 in WNW 2.0 mph 6.0 mph 73 % 0.00 in
11:09 50.6 °F 42.2 °F 30.29 in WNW 2.0 mph 8.0 mph 73 % 0.00 in
11:14 50.6 °F 41.9 °F 30.30 in WNW 0.9 mph 3.5 mph 72 % 0.00 in
11:19 50.6 °F 41.9 °F 30.30 in West 2.0 mph 6.0 mph 72 % 0.00 in
11:24 50.6 °F 41.6 °F 30.29 in West 2.0 mph 6.0 mph 71 % 0.00 in
11:29 50.6 °F 41.6 °F 30.29 in West 3.0 mph 7.0 mph 71 % 0.00 in
11:34 50.6 °F 41.9 °F 30.29 in West 3.6 mph 4.0 mph 72 % 0.00 in
11:39 50.7 °F 42.0 °F 30.28 in West 1.0 mph 5.0 mph 72 % 0.00 in
11:44 50.7 °F 41.6 °F 30.28 in West 2.5 mph 3.5 mph 71 % 0.00 in
11:49 50.6 °F 41.2 °F 30.28 in WNW 1.0 mph 7.0 mph 70 % 0.00 in
11:54 50.6 °F 41.5 °F 30.28 in WSW 3.7 mph 3.7 mph 71 % 0.00 in
11:59 50.6 °F 41.5 °F 30.29 in SW 0.4 mph 6.9 mph 71 % 0.00 in
12:04 50.7 °F 42.0 °F 30.28 in WSW 1.4 mph 4.6 mph 72 % 0.00 in
12:09 50.9 °F 41.8 °F 30.28 in SW 2.2 mph 4.6 mph 71 % 0.00 in
12:14 51.0 °F 42.3 °F 30.27 in South 1.1 mph 3.5 mph 72 % 0.00 in
12:19 51.3 °F 42.2 °F 30.27 in SSW 1.1 mph 3.5 mph 71 % 0.00 in
12:24 51.5 °F 42.0 °F 30.27 in West 1.5 mph 4.0 mph 70 % 0.00 in
12:29 51.7 °F 41.9 °F 30.27 in SW 2.9 mph 5.8 mph 69 % 0.00 in
12:34 51.9 °F 41.7 °F 30.27 in WNW 4.8 mph 8.1 mph 68 % 0.00 in
12:40 51.9 °F 41.7 °F 30.26 in SW 2.4 mph 5.8 mph 68 % 0.00 in
12:45 52.0 °F 41.8 °F 30.26 in SW 4.7 mph 5.8 mph 68 % 0.00 in
12:50 52.1 °F 41.9 °F 30.26 in West 0.9 mph 2.3 mph 68 % 0.00 in
12:55 52.2 °F 42.0 °F 30.27 in SSW 2.2 mph 3.5 mph 68 % 0.00 in
13:00 52.4 °F 42.1 °F 30.27 in SSW 5.4 mph 8.0 mph 68 % 0.00 in
13:05 52.6 °F 42.3 °F 30.26 in SSW 1.6 mph 5.8 mph 68 % 0.00 in
13:10 52.7 °F 42.4 °F 30.26 in WNW 2.7 mph 4.6 mph 68 % 0.00 in
13:15 52.8 °F 42.5 °F 30.27 in SW 2.5 mph 8.1 mph 68 % 0.00 in
13:20 53.0 °F 42.7 °F 30.27 in WSW 1.6 mph 6.9 mph 68 % 0.00 in
13:25 52.9 °F 42.6 °F 30.27 in SW 4.2 mph 7.0 mph 68 % 0.00 in
13:30 52.8 °F 42.5 °F 30.27 in South 4.0 mph 6.9 mph 68 % 0.00 in
13:35 52.9 °F 42.6 °F 30.27 in SW 3.1 mph 4.6 mph 68 % 0.00 in
13:40 52.9 °F 42.6 °F 30.27 in SSW 1.5 mph 3.5 mph 68 % 0.00 in
13:45 52.8 °F 42.5 °F 30.27 in SSW 4.6 mph 6.9 mph 68 % 0.00 in
13:50 52.9 °F 42.6 °F 30.27 in SW 5.0 mph 6.9 mph 68 % 0.00 in
13:55 53.0 °F 42.7 °F 30.26 in WSW 3.4 mph 6.9 mph 68 % 0.00 in
14:03 53.1 °F 42.0 °F 30.26 in WSW 4.0 mph 4.0 mph 66 % 0.00 in
14:08 53.3 °F 42.2 °F 30.27 in WNW 2.1 mph 4.6 mph 66 % 0.00 in
14:13 53.4 °F 42.3 °F 30.27 in North 1.7 mph 3.0 mph 66 % 0.00 in
14:18 53.3 °F 41.8 °F 30.26 in WSW 1.9 mph 6.9 mph 65 % 0.00 in
14:23 53.3 °F 41.8 °F 30.26 in West 4.1 mph 6.9 mph 65 % 0.00 in
14:28 53.3 °F 41.8 °F 30.27 in SSW 0.5 mph 4.6 mph 65 % 0.00 in
14:33 53.3 °F 41.8 °F 30.26 in SW 1.2 mph 2.3 mph 65 % 0.00 in
14:38 53.2 °F 41.7 °F 30.26 in West 1.9 mph 3.5 mph 65 % 0.00 in
14:43 53.1 °F 41.6 °F 30.26 in West 0.3 mph 3.5 mph 65 % 0.00 in
14:48 53.1 °F 41.6 °F 30.26 in West 1.0 mph 2.3 mph 65 % 0.00 in
14:53 53.0 °F 41.5 °F 30.26 in WSW 0.2 mph 1.2 mph 65 % 0.00 in
14:58 53.0 °F 41.5 °F 30.27 in SSW 0.9 mph 2.3 mph 65 % 0.00 in
15:03 53.0 °F 41.9 °F 30.26 in SSW 0.2 mph 2.3 mph 66 % 0.00 in
15:09 52.9 °F 41.0 °F 30.26 in South 3.1 mph 4.0 mph 64 % 0.00 in
15:14 52.9 °F 41.8 °F 30.26 in South 0.1 mph 3.0 mph 66 % 0.00 in
15:19 52.7 °F 41.7 °F 30.26 in South 0.4 mph 2.3 mph 66 % 0.00 in
15:24 52.6 °F 41.2 °F 30.26 in SSE 0.4 mph   65 % 0.00 in
15:29 52.5 °F 41.1 °F 30.25 in South 1.7 mph 3.5 mph 65 % 0.00 in
15:34 52.4 °F 41.4 °F 30.26 in Calm   3.0 mph 66 % 0.00 in
15:39 52.2 °F 41.2 °F 30.26 in Calm   2.0 mph 66 % 0.00 in
15:44 52.1 °F 41.1 °F 30.25 in South 1.0 mph 3.0 mph 66 % 0.00 in
15:49 51.8 °F 41.2 °F 30.25 in Calm   2.0 mph 67 % 0.00 in
15:54 51.7 °F 41.1 °F 30.25 in SSE 1.0 mph 3.0 mph 67 % 0.00 in
15:59 51.5 °F 40.9 °F 30.25 in Calm     67 % 0.00 in
16:04 51.3 °F 40.7 °F 30.25 in Calm   2.0 mph 67 % 0.00 in
16:09 51.1 °F 40.9 °F 30.25 in SSE 1.0 mph 3.0 mph 68 % 0.00 in
16:14 50.9 °F 40.7 °F 30.25 in Calm   2.0 mph 68 % 0.00 in
16:19 50.7 °F 40.9 °F 30.26 in Calm   2.0 mph 69 % 0.00 in
16:24 50.4 °F 40.6 °F 30.26 in South 0.1 mph   69 % 0.00 in
16:29 50.1 °F 40.3 °F 30.27 in South 1.0 mph 2.0 mph 69 % 0.00 in
16:34 49.7 °F 40.3 °F 30.26 in Calm   4.0 mph 70 % 0.00 in
16:39 49.3 °F 40.3 °F 30.26 in SSE 2.0 mph 5.0 mph 71 % 0.00 in
16:44 49.1 °F 40.8 °F 30.26 in South 2.0 mph 5.0 mph 73 % 0.00 in
16:49 48.8 °F 40.9 °F 30.26 in South 3.0 mph 9.0 mph 74 % 0.00 in
16:54 48.5 °F 40.9 °F 30.26 in South 1.0 mph 5.0 mph 75 % 0.00 in
16:59 48.1 °F 40.9 °F 30.26 in South 2.2 mph 5.8 mph 76 % 0.00 in
17:04 47.7 °F 40.5 °F 30.26 in South 1.8 mph 3.5 mph 76 % 0.00 in
17:09 47.4 °F 40.6 °F 30.26 in South 2.7 mph 6.0 mph 77 % 0.00 in
17:14 46.9 °F 40.4 °F 30.26 in SSW 2.8 mph 5.8 mph 78 % 0.00 in
17:19 46.5 °F 40.3 °F 30.26 in SSE 3.1 mph 4.6 mph 79 % 0.00 in
17:24 46.2 °F 40.0 °F 30.26 in SE 3.9 mph 6.9 mph 79 % 0.00 in
17:29 45.9 °F 40.1 °F 30.26 in SSW 2.1 mph 5.0 mph 80 % 0.00 in
17:34 45.7 °F 40.2 °F 30.26 in South 3.1 mph 5.0 mph 81 % 0.00 in
17:40 45.4 °F 40.2 °F 30.25 in South 3.6 mph 6.9 mph 82 % 0.00 in
17:45 45.1 °F 40.2 °F 30.26 in South 4.0 mph 6.9 mph 83 % 0.00 in
17:50 44.9 °F 40.0 °F 30.26 in SSW 3.5 mph 5.8 mph 83 % 0.00 in
17:55 44.8 °F 40.3 °F 30.25 in South 4.2 mph 6.0 mph 84 % 0.00 in
18:00 44.6 °F 40.4 °F 30.25 in South 3.3 mph 5.0 mph 85 % 0.00 in
18:05 44.5 °F 40.6 °F 30.26 in SSW 2.6 mph 8.1 mph 86 % 0.00 in
18:10 44.3 °F 40.7 °F 30.26 in SSE 3.3 mph 5.8 mph 87 % 0.00 in
18:15 44.3 °F 40.7 °F 30.27 in South 4.1 mph 6.9 mph 87 % 0.00 in
18:16 44.2 °F 40.6 °F 30.26 in South 2.1 mph 6.9 mph 87 % 0.00 in
18:21 44.2 °F 40.9 °F 30.27 in SSE 5.7 mph 9.2 mph 88 % 0.00 in
18:26 44.2 °F 40.9 °F 30.27 in South 2.4 mph 6.9 mph 88 % 0.00 in
18:31 44.1 °F 40.8 °F 30.27 in South 3.9 mph 7.0 mph 88 % 0.00 in
18:36 44.2 °F 41.2 °F 30.27 in SSW 3.6 mph 6.9 mph 89 % 0.00 in
18:41 44.2 °F 41.5 °F 30.27 in SSW 4.5 mph 8.1 mph 90 % 0.00 in
18:46 44.2 °F 41.5 °F 30.27 in South 2.5 mph 3.5 mph 90 % 0.00 in
18:52 44.2 °F 41.5 °F 30.26 in South 2.9 mph 4.6 mph 90 % 0.00 in
18:57 44.2 °F 41.5 °F 30.26 in SE 4.2 mph 5.8 mph 90 % 0.00 in
19:02 44.2 °F 41.7 °F 30.26 in South 4.6 mph 5.8 mph 91 % 0.00 in
19:07 44.2 °F 41.7 °F 30.26 in SSE 1.1 mph 5.8 mph 91 % 0.00 in
19:12 44.2 °F 41.7 °F 30.26 in SSE 1.7 mph 4.0 mph 91 % 0.00 in
19:17 44.2 °F 41.7 °F 30.26 in SSE 0.9 mph 3.5 mph 91 % 0.00 in
19:22 44.2 °F 41.7 °F 30.25 in South 1.2 mph 3.5 mph 91 % 0.00 in
19:27 44.2 °F 41.7 °F 30.26 in South 0.5 mph 3.0 mph 91 % 0.00 in
19:32 44.2 °F 41.7 °F 30.26 in South 2.8 mph 7.0 mph 91 % 0.00 in
19:37 44.3 °F 42.1 °F 30.25 in South 0.6 mph 1.2 mph 92 % 0.00 in
19:42 44.3 °F 42.1 °F 30.26 in SW 4.5 mph 5.8 mph 92 % 0.00 in
19:47 44.4 °F 42.2 °F 30.24 in South 0.8 mph 3.5 mph 92 % 0.00 in
19:52 44.5 °F 42.6 °F 30.23 in South 3.3 mph 5.8 mph 93 % 0.00 in
19:57 44.7 °F 42.8 °F 30.22 in SE 1.1 mph 3.5 mph 93 % 0.00 in
20:02 44.8 °F 42.9 °F 30.21 in SSE 2.5 mph 3.5 mph 93 % 0.00 in
20:07 44.8 °F 42.6 °F 30.22 in SE 0.8 mph 3.5 mph 92 % 0.00 in
20:12 44.8 °F 42.6 °F 30.23 in SW 1.2 mph 3.5 mph 92 % 0.00 in
20:17 44.9 °F 42.7 °F 30.23 in Calm     92 % 0.00 in
20:22 44.9 °F 42.7 °F 30.23 in Calm   1.2 mph 92 % 0.00 in
20:28 44.9 °F 42.7 °F 30.23 in SW 1.7 mph 3.5 mph 92 % 0.00 in
20:33 44.9 °F 42.7 °F 30.23 in Calm   1.2 mph 92 % 0.00 in
20:38 45.0 °F 42.8 °F 30.23 in Calm     92 % 0.00 in
20:43 45.0 °F 42.8 °F 30.23 in Calm   1.2 mph 92 % 0.00 in
20:48 45.1 °F 42.9 °F 30.23 in WSW 0.1 mph 3.5 mph 92 % 0.00 in
20:53 45.1 °F 42.9 °F 30.22 in Calm     92 % 0.00 in
20:58 45.1 °F 42.6 °F 30.22 in Calm   3.5 mph 91 % 0.00 in
21:03 45.1 °F 42.6 °F 30.23 in Calm   2.3 mph 91 % 0.00 in
21:08 45.2 °F 42.7 °F 30.23 in WSW 1.8 mph 4.6 mph 91 % 0.00 in
21:13 45.2 °F 42.7 °F 30.23 in WSW 0.5 mph 1.2 mph 91 % 0.00 in
21:18 45.2 °F 42.4 °F 30.22 in Calm   1.2 mph 90 % 0.00 in
21:23 45.2 °F 42.4 °F 30.23 in Calm     90 % 0.00 in
21:28 45.2 °F 42.4 °F 30.23 in Calm   1.2 mph 90 % 0.00 in
21:33 45.1 °F 42.3 °F 30.23 in WSW 0.1 mph 2.3 mph 90 % 0.00 in
21:38 45.0 °F 42.2 °F 30.24 in Calm     90 % 0.00 in
21:43 44.9 °F 42.1 °F 30.24 in WSW 0.4 mph 1.2 mph 90 % 0.00 in
21:48 44.9 °F 42.1 °F 30.24 in WSW 0.8 mph 2.3 mph 90 % 0.00 in
21:53 44.8 °F 42.0 °F 30.24 in SW 2.9 mph 3.5 mph 90 % 0.00 in
21:58 44.8 °F 42.3 °F 30.24 in SW 1.0 mph 3.5 mph 91 % 0.00 in
22:04 44.8 °F 42.3 °F 30.24 in WSW 1.5 mph 4.0 mph 91 % 0.00 in
22:09 44.8 °F 42.3 °F 30.24 in Calm     91 % 0.00 in
22:14 44.9 °F 42.7 °F 30.24 in SW 1.3 mph 3.5 mph 92 % 0.00 in
22:19 44.8 °F 42.6 °F 30.23 in Calm     92 % 0.00 in
22:24 44.9 °F 42.7 °F 30.23 in West 1.2 mph 3.5 mph 92 % 0.01 in
22:29 44.9 °F 43.0 °F 30.23 in Calm   2.0 mph 93 % 0.00 in
22:34 44.9 °F 43.0 °F 30.22 in Calm   1.0 mph 93 % 0.00 in
22:39 45.0 °F 43.1 °F 30.22 in Calm   3.0 mph 93 % 0.00 in
22:44 45.0 °F 43.1 °F 30.21 in Calm   3.0 mph 93 % 0.00 in
22:49 45.2 °F 43.6 °F 30.21 in SSW 1.0 mph 4.0 mph 94 % 0.00 in
22:54 45.4 °F 43.8 °F 30.20 in South 1.0 mph 4.0 mph 94 % 0.00 in
22:59 45.6 °F 44.3 °F 30.19 in SE 0.1 mph 1.2 mph 95 % 0.05 in
23:04 45.7 °F 44.4 °F 30.19 in South 3.5 mph 6.9 mph 95 % 0.05 in
23:09 45.9 °F 44.5 °F 30.18 in SSE 2.2 mph 4.6 mph 95 % 0.06 in
23:14 46.0 °F 44.6 °F 30.18 in SSE 2.9 mph 3.5 mph 95 % 0.06 in
23:19 46.2 °F 44.8 °F 30.18 in South 1.1 mph 5.8 mph 95 % 0.05 in
23:24 46.2 °F 44.8 °F 30.18 in SSW 2.1 mph 4.0 mph 95 % 0.06 in
23:29 46.3 °F 44.9 °F 30.18 in WSW 2.7 mph 6.0 mph 95 % 0.05 in
23:34 46.4 °F 45.0 °F 30.18 in SSW 2.2 mph 5.0 mph 95 % 0.05 in
23:40 46.5 °F 45.4 °F 30.17 in SW 3.3 mph 4.6 mph 96 % 0.05 in
23:45 46.6 °F 45.5 °F 30.17 in SW 2.2 mph 5.8 mph 96 % 0.05 in
23:50 46.7 °F 45.6 °F 30.17 in SSW 1.0 mph 3.5 mph 96 % 0.04 in
23:55 46.8 °F 45.7 °F 30.17 in South 2.4 mph 5.8 mph 96 % 0.05 in
Crab Meadow Weather
Compliments of Weather Underground - 3 mb

Script developed by  Jim McMurry - jmcmurry@mwt.net Adapted for the template by  Wim van der Kuil - Leuven-Template.eu

Weather Terms: Dense Fog Advisory - Widespread dense fog reducing visibility to less than 1/4 mile.